createdAt,value
2018-12-07T00:01:45.917Z,68.71
2018-12-07T00:04:12.210Z,69.77
2018-12-07T00:06:38.351Z,69.77
2018-12-07T00:09:05.586Z,69.29
2018-12-07T00:11:31.742Z,69.88
2018-12-07T00:13:57.906Z,70.30
2018-12-07T00:16:24.082Z,70.13
2018-12-07T00:18:50.265Z,70.13
2018-12-07T00:21:16.441Z,69.90
2018-12-07T00:23:42.635Z,70.42
2018-12-07T00:26:08.791Z,70.80
2018-12-07T00:28:34.946Z,70.62
2018-12-07T00:31:01.161Z,70.71
2018-12-07T00:33:27.330Z,70.26
2018-12-07T00:35:53.498Z,71.37
2018-12-07T00:38:20.154Z,70.77
2018-12-07T00:40:46.763Z,70.95
2018-12-07T00:43:12.932Z,70.37
2018-12-07T00:45:39.105Z,70.54
2018-12-07T00:48:05.261Z,70.00
2018-12-07T00:50:31.417Z,70.37
2018-12-07T00:52:57.597Z,70.21
2018-12-07T00:55:32.899Z,70.04
2018-12-07T00:57:59.081Z,69.86
2018-12-07T01:00:25.242Z,69.75
2018-12-07T01:02:51.405Z,70.32
2018-12-07T01:05:17.609Z,69.59
2018-12-07T01:07:43.767Z,70.12
2018-12-07T01:10:09.954Z,70.25
2018-12-07T01:12:36.158Z,70.94
2018-12-07T01:15:03.190Z,72.31
2018-12-07T01:17:29.353Z,71.25
2018-12-07T01:19:55.545Z,70.55
2018-12-07T01:22:21.702Z,70.34
2018-12-07T01:24:47.885Z,70.96
2018-12-07T01:27:14.085Z,71.69
2018-12-07T01:29:40.245Z,71.51
2018-12-07T01:32:06.417Z,70.70
2018-12-07T01:34:32.601Z,70.32
2018-12-07T01:36:58.782Z,70.46
2018-12-07T01:39:24.989Z,71.05
2018-12-07T01:41:51.210Z,70.29
2018-12-07T01:44:17.365Z,70.48
2018-12-07T01:46:43.521Z,70.03
2018-12-07T01:49:09.725Z,70.26
2018-12-07T01:51:35.886Z,70.06
2018-12-07T01:54:02.049Z,70.92
2018-12-07T01:56:28.246Z,71.35
2018-12-07T01:58:54.395Z,71.41
2018-12-07T02:01:20.573Z,70.40
2018-12-07T02:03:46.775Z,70.79
2018-12-07T02:06:12.929Z,70.32
2018-12-07T02:08:39.077Z,69.86
2018-12-07T02:11:05.266Z,70.26
2018-12-07T02:13:31.418Z,69.82
2018-12-07T02:15:57.573Z,69.41
2018-12-07T02:18:23.753Z,69.97
2018-12-07T02:20:49.956Z,69.94
2018-12-07T02:23:16.147Z,69.62
2018-12-07T02:25:42.317Z,69.50
2018-12-07T02:28:08.490Z,70.03
2018-12-07T02:30:34.634Z,70.01
2018-12-07T02:33:00.853Z,69.71
2018-12-07T02:35:27.010Z,70.35
2018-12-07T02:37:53.146Z,70.72
2018-12-07T02:40:19.369Z,71.23
2018-12-07T02:42:45.530Z,70.91
2018-12-07T02:45:11.726Z,70.31
2018-12-07T02:47:37.897Z,70.48
2018-12-07T02:50:04.209Z,71.01
2018-12-07T02:52:30.354Z,71.62
2018-12-07T02:54:56.535Z,71.18
2018-12-07T02:57:22.721Z,71.72
2018-12-07T02:59:48.869Z,71.73
2018-12-07T03:02:15.077Z,72.16
2018-12-07T03:04:41.226Z,71.59
2018-12-07T03:07:07.386Z,71.11
2018-12-07T03:09:33.606Z,71.36
2018-12-07T03:11:59.781Z,72.01
2018-12-07T03:14:25.967Z,73.30
2018-12-07T03:16:52.161Z,71.68
2018-12-07T03:19:18.326Z,71.75
2018-12-07T03:21:44.506Z,71.13
2018-12-07T03:24:10.693Z,71.15
2018-12-07T03:26:36.850Z,71.00
2018-12-07T03:29:03.146Z,70.62
2018-12-07T03:31:29.335Z,71.37
2018-12-07T03:33:55.500Z,70.89
2018-12-07T03:36:21.654Z,70.77
2018-12-07T03:38:47.977Z,71.03
2018-12-07T03:41:14.142Z,70.76
2018-12-07T03:43:40.316Z,70.77
2018-12-07T03:46:06.742Z,70.81
2018-12-07T03:48:32.903Z,70.35
2018-12-07T03:50:59.059Z,70.02
2018-12-07T03:53:25.331Z,70.35
2018-12-07T03:55:51.494Z,71.15
2018-12-07T03:58:17.633Z,70.94
2018-12-07T04:00:43.826Z,70.96
2018-12-07T04:03:09.990Z,70.95
2018-12-07T04:05:36.161Z,70.79
2018-12-07T04:08:02.380Z,70.75
2018-12-07T04:10:28.543Z,70.87
2018-12-07T04:12:54.698Z,70.90
2018-12-07T04:15:20.937Z,70.95
2018-12-07T04:17:47.102Z,70.58
2018-12-07T04:20:13.292Z,70.78
2018-12-07T04:22:39.485Z,70.90
2018-12-07T04:25:05.678Z,70.47
2018-12-07T04:27:31.834Z,70.67
2018-12-07T04:30:10.193Z,70.98
2018-12-07T04:32:36.347Z,70.78
2018-12-07T04:35:02.775Z,71.21
2018-12-07T04:37:28.971Z,70.91
2018-12-07T04:39:55.125Z,71.10
2018-12-07T04:42:21.287Z,70.48
2018-12-07T04:44:47.494Z,70.48
2018-12-07T04:47:13.654Z,71.29
2018-12-07T04:49:39.817Z,71.36
2018-12-07T04:52:06.012Z,71.00
2018-12-07T04:54:32.223Z,71.05
2018-12-07T04:56:58.402Z,70.91
2018-12-07T04:59:24.572Z,71.36
2018-12-07T05:01:50.722Z,71.65
2018-12-07T05:04:16.874Z,72.15
2018-12-07T05:06:43.058Z,71.60
2018-12-07T05:09:09.204Z,71.20
2018-12-07T05:11:35.387Z,70.91
2018-12-07T05:14:01.885Z,71.35
2018-12-07T05:16:28.084Z,71.79
2018-12-07T05:18:54.265Z,70.70
2018-12-07T05:21:20.459Z,71.11
2018-12-07T05:23:46.620Z,71.60
2018-12-07T05:26:12.796Z,72.27
2018-12-07T05:28:38.979Z,71.38
2018-12-07T05:31:05.150Z,71.44
2018-12-07T05:33:31.313Z,71.46
2018-12-07T05:35:57.498Z,70.70
2018-12-07T05:38:23.665Z,71.45
2018-12-07T05:40:49.837Z,72.62
2018-12-07T05:43:16.072Z,71.93
2018-12-07T05:45:42.255Z,71.33
2018-12-07T05:48:08.415Z,71.56
2018-12-07T05:50:34.630Z,71.42
2018-12-07T05:53:00.781Z,71.64
2018-12-07T05:55:26.945Z,71.12
2018-12-07T05:57:53.129Z,71.19
2018-12-07T06:00:19.437Z,71.35
2018-12-07T06:02:45.588Z,71.24
2018-12-07T06:05:11.905Z,70.52
2018-12-07T06:07:38.062Z,70.91
2018-12-07T06:10:04.506Z,71.00
2018-12-07T06:12:30.680Z,70.98
2018-12-07T06:14:56.839Z,70.72
2018-12-07T06:17:23.001Z,70.42
2018-12-07T06:19:49.177Z,70.67
2018-12-07T06:22:15.333Z,70.37
2018-12-07T06:24:41.486Z,70.17
2018-12-07T06:27:08.412Z,69.77
2018-12-07T06:29:34.661Z,70.25
2018-12-07T06:32:00.817Z,70.35
2018-12-07T06:34:26.993Z,71.50
2018-12-07T06:36:53.137Z,71.20
2018-12-07T06:39:19.287Z,71.03
2018-12-07T06:41:45.509Z,70.59
2018-12-07T06:44:11.654Z,70.04
2018-12-07T06:46:37.846Z,70.26
2018-12-07T06:49:07.436Z,70.38
2018-12-07T06:51:33.615Z,70.37
2018-12-07T06:53:59.778Z,69.69
2018-12-07T06:56:25.959Z,69.23
2018-12-07T06:58:52.125Z,69.14
2018-12-07T07:01:18.285Z,68.93
2018-12-07T07:03:44.478Z,68.51
2018-12-07T07:06:10.641Z,68.36
2018-12-07T07:08:36.802Z,68.93
2018-12-07T07:11:03.026Z,68.44
2018-12-07T07:13:29.202Z,69.22
2018-12-07T07:15:55.403Z,68.80
2018-12-07T07:18:21.603Z,67.98
2018-12-07T07:20:47.758Z,69.45
2018-12-07T07:23:13.926Z,68.36
2018-12-07T07:25:40.135Z,67.61
2018-12-07T07:28:06.334Z,67.36
2018-12-07T07:30:32.529Z,68.24
2018-12-07T07:32:59.425Z,68.57
2018-12-07T07:35:25.606Z,68.15
2018-12-07T07:37:51.757Z,67.71
2018-12-07T07:40:17.951Z,67.44
2018-12-07T07:42:44.101Z,66.97
2018-12-07T07:45:10.300Z,66.23
2018-12-07T07:47:36.512Z,64.11
2018-12-07T07:50:04.733Z,64.63
2018-12-07T07:52:30.906Z,65.36
2018-12-07T07:54:57.130Z,64.56
2018-12-07T07:57:23.281Z,64.53
2018-12-07T07:59:49.518Z,63.65
2018-12-07T08:02:15.737Z,63.05
2018-12-07T08:04:41.910Z,62.80
2018-12-07T08:07:08.064Z,63.13
2018-12-07T08:09:34.253Z,62.85
2018-12-07T08:12:00.413Z,63.01
2018-12-07T08:14:26.638Z,62.95
2018-12-07T08:16:52.822Z,64.78
2018-12-07T08:19:18.990Z,64.65
2018-12-07T08:21:45.145Z,65.23
2018-12-07T08:24:11.418Z,65.57
2018-12-07T08:26:37.582Z,67.33
2018-12-07T08:29:03.726Z,67.43
2018-12-07T08:31:29.946Z,67.57
2018-12-07T08:33:56.094Z,68.12
2018-12-07T08:36:22.261Z,66.77
2018-12-07T08:38:48.478Z,65.25
2018-12-07T08:41:14.715Z,63.86
2018-12-07T08:43:40.944Z,63.02
2018-12-07T08:46:07.171Z,62.05
2018-12-07T08:48:33.779Z,61.34
2018-12-07T08:50:59.949Z,61.40
2018-12-07T08:53:26.120Z,58.63
2018-12-07T08:55:52.295Z,56.24
2018-12-07T08:58:18.447Z,55.91
2018-12-07T09:00:44.639Z,56.33
2018-12-07T09:03:10.826Z,56.75
2018-12-07T09:05:37.006Z,56.29
2018-12-07T09:08:03.349Z,57.15
2018-12-07T09:10:29.503Z,57.93
2018-12-07T09:12:55.635Z,56.18
2018-12-07T09:15:21.825Z,55.80
2018-12-07T09:17:48.815Z,55.19
2018-12-07T09:20:15.145Z,55.90
2018-12-07T09:22:41.461Z,55.83
2018-12-07T09:25:07.771Z,54.70
2018-12-07T09:27:33.925Z,56.04
2018-12-07T09:30:00.117Z,55.93
2018-12-07T09:32:26.277Z,55.76
2018-12-07T09:34:52.450Z,54.96
2018-12-07T09:37:18.633Z,55.31
2018-12-07T09:39:44.907Z,57.74
2018-12-07T09:42:11.085Z,58.42
2018-12-07T09:44:37.274Z,61.50
2018-12-07T09:47:03.478Z,62.08
2018-12-07T09:49:29.734Z,61.95
2018-12-07T09:51:55.932Z,61.56
2018-12-07T09:54:22.080Z,62.58
2018-12-07T09:56:48.221Z,62.44
2018-12-07T09:59:14.417Z,61.00
2018-12-07T10:01:40.622Z,59.95
2018-12-07T10:04:06.800Z,59.57
2018-12-07T10:06:32.993Z,60.93
2018-12-07T10:08:59.203Z,62.17
2018-12-07T10:11:25.394Z,61.41
2018-12-07T10:13:51.565Z,60.29
2018-12-07T10:16:17.718Z,58.76
2018-12-07T10:18:43.882Z,57.87
2018-12-07T10:21:10.079Z,58.81
2018-12-07T10:23:36.229Z,59.75
2018-12-07T10:26:02.409Z,58.55
2018-12-07T10:28:28.632Z,56.61
2018-12-07T10:30:54.821Z,58.35
2018-12-07T10:33:20.964Z,56.96
2018-12-07T10:35:47.146Z,53.30
2018-12-07T10:38:13.319Z,55.30
2018-12-07T10:40:39.478Z,52.83
2018-12-07T10:43:05.657Z,55.75
2018-12-07T10:45:31.850Z,52.41
2018-12-07T10:47:58.047Z,53.06
2018-12-07T10:50:24.273Z,52.26
2018-12-07T10:52:50.441Z,52.98
2018-12-07T10:55:16.634Z,52.94
2018-12-07T10:57:42.815Z,54.23
2018-12-07T11:00:12.996Z,55.89
2018-12-07T11:02:45.446Z,54.79
2018-12-07T11:05:17.801Z,56.23
2018-12-07T11:07:49.878Z,55.92
2018-12-07T11:10:22.097Z,57.52
2018-12-07T11:12:54.210Z,54.13
2018-12-07T11:15:26.522Z,55.90
2018-12-07T11:17:58.774Z,56.26
2018-12-07T11:20:30.854Z,55.47
2018-12-07T11:23:03.245Z,55.59
2018-12-07T11:25:35.389Z,57.32
2018-12-07T11:31:11.294Z,55.95
2018-12-07T11:33:39.563Z,56.18
2018-12-07T11:36:08.180Z,54.12
2018-12-07T11:38:34.014Z,56.70
2018-12-07T11:41:00.246Z,56.05
2018-12-07T11:43:26.406Z,57.36
2018-12-07T11:45:52.579Z,56.90
2018-12-07T11:48:18.770Z,59.37
2018-12-07T11:50:45.313Z,58.36
2018-12-07T11:53:11.483Z,58.09
2018-12-07T11:55:37.707Z,58.08
2018-12-07T11:58:03.883Z,59.12
2018-12-07T12:00:30.185Z,57.59
2018-12-07T12:02:56.362Z,55.82
2018-12-07T12:05:22.516Z,54.90
2018-12-07T12:07:48.678Z,56.17
2018-12-07T12:10:14.893Z,53.21
2018-12-07T12:12:41.049Z,53.91
2018-12-07T12:15:07.247Z,53.81
2018-12-07T12:17:33.435Z,54.71
2018-12-07T12:19:59.608Z,55.76
2018-12-07T12:22:25.754Z,54.87
2018-12-07T12:24:51.942Z,57.35
2018-12-07T12:27:18.121Z,54.57
2018-12-07T12:29:44.286Z,56.58
2018-12-07T12:32:10.474Z,54.82
2018-12-07T12:34:36.635Z,55.22
2018-12-07T12:37:02.818Z,54.04
2018-12-07T12:39:28.977Z,53.80
2018-12-07T12:41:55.126Z,53.22
2018-12-07T12:44:21.334Z,53.11
2018-12-07T12:46:47.542Z,52.27
2018-12-07T12:49:13.668Z,53.03
2018-12-07T12:51:39.810Z,52.86
2018-12-07T12:54:05.993Z,54.01
2018-12-07T12:56:32.145Z,53.17
2018-12-07T12:58:58.318Z,55.25
2018-12-07T13:01:24.493Z,57.01
2018-12-07T13:03:50.781Z,58.05
2018-12-07T13:06:16.945Z,60.26
2018-12-07T13:08:43.140Z,60.22
2018-12-07T13:11:09.305Z,59.93
2018-12-07T13:13:35.446Z,59.97
2018-12-07T13:16:01.645Z,62.29
2018-12-07T13:18:27.793Z,60.21
2018-12-07T13:20:53.941Z,59.57
2018-12-07T13:23:20.114Z,59.20
2018-12-07T13:25:46.266Z,58.54
2018-12-07T13:28:12.403Z,58.57
2018-12-07T13:30:38.586Z,57.66
2018-12-07T13:33:04.745Z,58.04
2018-12-07T13:35:30.987Z,58.28
2018-12-07T13:37:57.173Z,57.94
2018-12-07T13:40:23.432Z,61.59
2018-12-07T13:42:49.644Z,63.66
2018-12-07T13:45:15.871Z,63.52
2018-12-07T13:47:42.211Z,65.66
2018-12-07T13:50:14.305Z,64.47
2018-12-07T13:52:40.633Z,63.79
2018-12-07T13:55:06.837Z,63.19
2018-12-07T13:57:33.116Z,63.58
2018-12-07T13:59:59.418Z,64.74
2018-12-07T14:02:25.583Z,64.57
2018-12-07T14:04:52.310Z,65.72
2018-12-07T14:07:20.333Z,65.84
2018-12-07T14:09:49.284Z,65.88
2018-12-07T14:12:15.627Z,65.58
2018-12-07T14:14:41.999Z,66.99
2018-12-07T14:17:13.349Z,66.06
2018-12-07T14:19:39.667Z,66.53
2018-12-07T14:22:05.880Z,66.17
2018-12-07T14:24:32.226Z,66.88
2018-12-07T14:26:59.716Z,66.90
2018-12-07T14:29:26.642Z,66.78
2018-12-07T14:31:53.069Z,66.80
2018-12-07T14:34:19.345Z,66.76
2018-12-07T14:36:46.180Z,67.12
2018-12-07T14:39:12.449Z,67.25
2018-12-07T14:41:38.697Z,67.95
2018-12-07T14:44:05.039Z,68.70
2018-12-07T14:46:31.482Z,71.01
2018-12-07T14:48:57.878Z,71.20
2018-12-07T14:51:24.401Z,73.22
2018-12-07T14:53:51.017Z,74.61
2018-12-07T14:56:17.241Z,72.81
2018-12-07T14:58:43.589Z,72.24
2018-12-07T15:01:10.001Z,71.34
2018-12-07T15:03:36.764Z,71.03
2018-12-07T15:06:03.035Z,71.67
2018-12-07T15:08:29.207Z,71.78
2018-12-07T15:10:55.523Z,72.61
2018-12-07T15:13:21.804Z,72.35
2018-12-07T15:15:48.033Z,71.90
2018-12-07T15:18:14.473Z,72.60
2018-12-07T15:20:40.694Z,72.36
2018-12-07T15:23:07.545Z,73.35
2018-12-07T15:25:33.865Z,72.07
2018-12-07T15:28:00.178Z,71.85
2018-12-07T15:30:26.497Z,73.84
2018-12-07T15:32:52.878Z,72.96
2018-12-07T15:35:19.357Z,73.37
2018-12-07T15:37:45.921Z,73.04
2018-12-07T15:40:12.304Z,71.84
2018-12-07T15:42:39.867Z,70.89
2018-12-07T15:45:06.877Z,70.60
2018-12-07T15:47:33.353Z,70.64
2018-12-07T15:49:59.587Z,71.49
2018-12-07T15:52:25.866Z,70.96
2018-12-07T15:54:53.160Z,71.52
2018-12-07T15:57:20.714Z,70.58
2018-12-07T15:59:47.181Z,71.02
2018-12-07T16:02:13.576Z,70.84
2018-12-07T16:04:40.068Z,71.04
2018-12-07T16:07:06.491Z,70.89
2018-12-07T16:09:32.828Z,70.67
2018-12-07T16:11:59.062Z,70.17
2018-12-07T16:14:25.251Z,71.65
2018-12-07T16:16:51.660Z,72.07
2018-12-07T16:19:18.034Z,71.71
2018-12-07T16:21:44.494Z,71.97
2018-12-07T16:24:10.885Z,72.41
2018-12-07T16:26:37.200Z,72.42
2018-12-07T16:29:03.521Z,72.58
2018-12-07T16:31:29.799Z,73.26
2018-12-07T16:33:56.114Z,73.24
2018-12-07T16:36:22.615Z,72.33
2018-12-07T16:38:48.977Z,73.59
2018-12-07T16:41:15.505Z,73.26
2018-12-07T16:43:43.904Z,73.86
2018-12-07T16:46:10.265Z,74.16
2018-12-07T16:48:36.602Z,73.13
2018-12-07T16:51:02.949Z,72.34
2018-12-07T16:53:31.089Z,72.82
2018-12-07T16:55:57.500Z,72.18
2018-12-07T16:58:23.764Z,72.73
2018-12-07T17:00:50.245Z,73.37
2018-12-07T17:03:16.494Z,72.25
2018-12-07T17:05:42.726Z,71.40
2018-12-07T17:08:09.301Z,71.13
2018-12-07T17:10:35.773Z,71.00
2018-12-07T17:13:02.004Z,71.46
2018-12-07T17:15:28.685Z,71.88
2018-12-07T17:17:55.840Z,71.17
2018-12-07T17:20:22.676Z,70.70
2018-12-07T17:22:49.042Z,71.32
2018-12-07T17:25:15.467Z,71.36
2018-12-07T17:27:41.793Z,72.34
2018-12-07T17:30:08.021Z,71.14
2018-12-07T17:32:34.583Z,71.18
2018-12-07T17:35:00.953Z,70.89
2018-12-07T17:37:27.181Z,71.03
2018-12-07T17:39:53.462Z,70.63
2018-12-07T17:42:19.719Z,70.36
2018-12-07T17:44:45.971Z,69.92
2018-12-07T17:47:12.305Z,69.39
2018-12-07T17:49:38.676Z,68.77
2018-12-07T17:52:04.929Z,70.44
2018-12-07T17:54:31.156Z,70.39
2018-12-07T17:56:57.377Z,70.48
2018-12-07T17:59:23.791Z,70.32
2018-12-07T18:01:50.058Z,70.02
2018-12-07T18:04:16.217Z,69.58
2018-12-07T18:06:42.556Z,69.70
2018-12-07T18:09:08.899Z,68.29
2018-12-07T18:11:35.099Z,67.47
2018-12-07T18:14:01.398Z,66.84
2018-12-07T18:16:27.957Z,67.10
2018-12-07T18:18:54.376Z,67.32
2018-12-07T18:21:20.649Z,67.02
2018-12-07T18:23:46.962Z,67.03
2018-12-07T18:26:13.256Z,66.65
2018-12-07T18:28:39.499Z,66.04
2018-12-07T18:31:06.050Z,65.73
2018-12-07T18:33:32.684Z,63.78
2018-12-07T18:35:59.142Z,64.13
2018-12-07T18:38:25.479Z,63.48
2018-12-07T18:40:51.941Z,64.14
2018-12-07T18:43:18.440Z,64.74
2018-12-07T18:45:44.980Z,65.69
2018-12-07T18:48:11.566Z,67.12
2018-12-07T18:50:38.221Z,67.71
2018-12-07T18:53:04.570Z,67.94
2018-12-07T18:55:30.781Z,69.00
2018-12-07T18:57:57.105Z,69.58
2018-12-07T19:00:23.559Z,70.14
2018-12-07T19:02:50.081Z,69.90
2018-12-07T19:05:16.241Z,69.73
2018-12-07T19:07:42.608Z,69.39
2018-12-07T19:10:09.006Z,69.68
2018-12-07T19:12:35.321Z,70.40
2018-12-07T19:15:01.867Z,71.06
2018-12-07T19:17:28.240Z,70.85
2018-12-07T19:19:54.496Z,70.18
2018-12-07T19:22:20.821Z,70.40
2018-12-07T19:24:47.228Z,70.68
2018-12-07T19:27:13.660Z,70.88
2018-12-07T19:29:40.011Z,70.29
2018-12-07T19:32:06.290Z,70.28
2018-12-07T19:34:32.556Z,70.48
2018-12-07T19:36:58.929Z,69.64
2018-12-07T19:39:25.248Z,69.22
2018-12-07T19:41:51.777Z,70.12
2018-12-07T19:44:18.395Z,69.68
2018-12-07T19:46:44.849Z,69.51
2018-12-07T19:49:11.338Z,68.98
2018-12-07T19:51:37.953Z,68.95
2018-12-07T19:54:04.472Z,68.85
2018-12-07T19:56:30.937Z,69.95
2018-12-07T19:58:57.293Z,69.72
2018-12-07T20:01:23.848Z,69.86
2018-12-07T20:03:50.249Z,70.60
2018-12-07T20:06:16.701Z,71.48
2018-12-07T20:08:43.149Z,71.43
2018-12-07T20:11:09.363Z,70.59
2018-12-07T20:13:35.740Z,70.43
2018-12-07T20:16:02.498Z,70.40
2018-12-07T20:18:28.794Z,71.56
2018-12-07T20:20:54.981Z,70.52
2018-12-07T20:23:21.431Z,70.46
2018-12-07T20:25:47.914Z,70.68
2018-12-07T20:28:14.446Z,71.15
2018-12-07T20:30:40.991Z,70.06
2018-12-07T20:33:07.489Z,70.38
2018-12-07T20:35:33.814Z,70.88
2018-12-07T20:38:00.095Z,70.73
2018-12-07T20:40:26.709Z,71.32
2018-12-07T20:42:53.098Z,70.88
2018-12-07T20:45:19.456Z,71.05
2018-12-07T20:47:45.850Z,70.71
2018-12-07T20:50:12.271Z,71.74
2018-12-07T20:52:38.673Z,71.33
2018-12-07T20:55:05.075Z,71.54
2018-12-07T20:57:31.381Z,71.34
2018-12-07T20:59:57.841Z,70.94
2018-12-07T21:02:24.351Z,70.45
2018-12-07T21:04:51.068Z,68.19
2018-12-07T21:07:29.929Z,66.23
2018-12-07T21:10:18.763Z,65.00
2018-12-07T21:16:39.550Z,61.38
2018-12-07T21:19:05.895Z,59.76
2018-12-07T21:21:32.383Z,58.45
2018-12-07T21:23:58.743Z,56.45
2018-12-07T21:26:24.928Z,55.59
2018-12-07T21:28:51.483Z,56.03
2018-12-07T21:33:58.174Z,53.96
2018-12-07T21:36:38.877Z,52.88
2018-12-07T21:39:14.775Z,51.61
2018-12-07T21:41:41.783Z,58.28
2018-12-07T21:44:08.521Z,58.82
2018-12-07T21:46:35.948Z,59.01
2018-12-07T21:49:03.118Z,59.62
2018-12-07T21:51:34.907Z,59.54
2018-12-07T21:54:02.170Z,60.34
2018-12-07T21:56:29.185Z,62.06
2018-12-07T21:58:55.868Z,64.27
2018-12-07T22:01:23.288Z,64.30
2018-12-07T22:03:50.468Z,64.02
2018-12-07T22:06:17.696Z,64.93
2018-12-07T22:08:44.418Z,65.74
2018-12-07T22:11:11.329Z,65.32
2018-12-07T22:13:38.234Z,65.68
2018-12-07T22:16:04.963Z,65.40
2018-12-07T22:18:31.695Z,65.96
2018-12-07T22:20:59.041Z,66.10
2018-12-07T22:23:25.735Z,65.84
2018-12-07T22:25:52.730Z,66.97
2018-12-07T22:28:19.556Z,65.21
2018-12-07T22:30:46.475Z,63.97
2018-12-07T22:33:13.800Z,62.92
2018-12-07T22:35:40.711Z,64.24
2018-12-07T22:38:07.348Z,63.57
2018-12-07T22:40:34.024Z,64.16
2018-12-07T22:43:00.610Z,64.66
2018-12-07T22:45:27.625Z,64.45
2018-12-07T22:47:54.288Z,65.92
2018-12-07T22:50:20.824Z,64.46
2018-12-07T22:52:47.104Z,65.30
2018-12-07T22:55:14.051Z,65.05
2018-12-07T22:57:40.962Z,65.31
2018-12-07T23:00:09.548Z,65.71
2018-12-07T23:02:35.778Z,65.89
2018-12-07T23:05:02.170Z,65.36
2018-12-07T23:07:29.409Z,65.06
2018-12-07T23:09:55.898Z,64.45
2018-12-07T23:12:22.114Z,64.90
2018-12-07T23:14:48.323Z,64.65
2018-12-07T23:17:14.681Z,66.51
2018-12-07T23:19:41.579Z,65.78
2018-12-07T23:22:07.796Z,65.45
2018-12-07T23:24:33.974Z,66.55
2018-12-07T23:27:00.134Z,66.55
2018-12-07T23:29:26.306Z,67.05
2018-12-07T23:31:52.480Z,68.35
2018-12-07T23:34:18.633Z,68.34
2018-12-07T23:36:44.813Z,67.96
2018-12-07T23:39:11.010Z,67.44
2018-12-07T23:41:37.182Z,68.32
2018-12-07T23:44:03.386Z,68.79
2018-12-07T23:46:29.550Z,68.41
2018-12-07T23:48:55.718Z,68.58
2018-12-07T23:51:21.898Z,68.78
2018-12-07T23:53:48.053Z,68.40
2018-12-07T23:56:14.255Z,68.75
2018-12-07T23:58:40.449Z,68.81
